首页
METAR-TAF:

METAR-TAF

机场 :

Redwood Falls Municipal Airport

Redwood Falls, 明尼蘇達州, 美国

纬度: 44-32-50N, 经度: 095-04-56W, 海拔: 312米

当前天气观测

该预报发布于35分钟前的12:53 UTC
温度
气压 1017 hPa

METAR: KRWF 181253Z AUTO A3002 RMK AO2 SLPNO PWINO $

时间: 08:28 (13:28 UTC)

预报

该预报发布于1小时和45分钟前的11:43 UTC
预报有效从18日的 12点(UTC)到 19日的 12点(UTC)
风速5节,风向西转西北
能見度: 10公里
少量云层高于15000英尺
从 18日的 1600点(UTC)
风速6节,风向北转西北
能見度: 10公里
多云层高于5000英尺
多云层高于10000英尺
从 19日的 0000点(UTC)
风速4节,风向
能見度: 10公里
散云层高于15000英尺

TAF: KRWF 181143Z 1812/1912 30005KT P6SM FEW150 FM181600 33006KT P6SM BKN050 BKN100 FM190000 35004KT P6SM SCT150

超过4000个机场的气象观测和天气预报(METAR&TAF报告)。

可查询的气象台以黄色和红色小点在地图上表示。

将鼠标移到小点上方,可查看气象台名称。

然后点击查看天气观测和预报。

如需切换地图:点击带黑十字的绿色按钮放大地图;点击带横线的绿色按钮缩小地图;或者点击绿色箭头查看邻近地区的地图。


METAR-TAF: